sensor_id;sensor_type;location;lat;lon;timestamp;pressure;altitude;pressure_sealevel;temperature;humidity
73024;BME280;61199;47.526;8.538;2022-10-31T00:00:32;96998.97;;;15.03;68.78
73024;BME280;61199;47.526;8.538;2022-10-31T00:02:59;96990.78;;;15.06;68.78
73024;BME280;61199;47.526;8.538;2022-10-31T00:05:25;96985.66;;;15.05;68.84
73024;BME280;61199;47.526;8.538;2022-10-31T00:07:52;96986.66;;;14.94;69.54
73024;BME280;61199;47.526;8.538;2022-10-31T00:10:19;96982.22;;;14.95;68.71
73024;BME280;61199;47.526;8.538;2022-10-31T00:12:45;96992.63;;;14.96;69.21
73024;BME280;61199;47.526;8.538;2022-10-31T00:15:12;96984.34;;;14.91;68.82
73024;BME280;61199;47.526;8.538;2022-10-31T00:17:38;96987.53;;;14.85;69.14
73024;BME280;61199;47.526;8.538;2022-10-31T00:20:05;96996.75;;;14.81;69.18
73024;BME280;61199;47.526;8.538;2022-10-31T00:22:32;96989.06;;;14.88;68.91
73024;BME280;61199;47.526;8.538;2022-10-31T00:24:58;96990.59;;;14.90;68.36
73024;BME280;61199;47.526;8.538;2022-10-31T00:27:24;96989.91;;;14.88;68.54
73024;BME280;61199;47.526;8.538;2022-10-31T00:29:51;96993.13;;;14.82;68.55
73024;BME280;61199;47.526;8.538;2022-10-31T00:32:17;96994.47;;;14.86;67.96
73024;BME280;61199;47.526;8.538;2022-10-31T00:34:43;96991.16;;;14.84;68.20
73024;BME280;61199;47.526;8.538;2022-10-31T00:37:10;96988.44;;;14.76;68.35
73024;BME280;61199;47.526;8.538;2022-10-31T00:39:36;96990.09;;;14.77;68.63
73024;BME280;61199;47.526;8.538;2022-10-31T00:42:02;96996.06;;;14.79;68.32
73024;BME280;61199;47.526;8.538;2022-10-31T00:44:29;96990.16;;;14.59;68.49
73024;BME280;61199;47.526;8.538;2022-10-31T00:46:55;96988.50;;;14.58;68.80
73024;BME280;61199;47.526;8.538;2022-10-31T00:49:22;96991.81;;;14.60;68.82
73024;BME280;61199;47.526;8.538;2022-10-31T00:51:48;96989.72;;;14.63;68.57
73024;BME280;61199;47.526;8.538;2022-10-31T00:54:14;96993.09;;;14.56;69.32
73024;BME280;61199;47.526;8.538;2022-10-31T00:56:41;96990.22;;;14.49;68.94
73024;BME280;61199;47.526;8.538;2022-10-31T00:59:07;96993.09;;;14.56;69.11
73024;BME280;61199;47.526;8.538;2022-10-31T01:01:34;96988.38;;;14.59;69.13
73024;BME280;61199;47.526;8.538;2022-10-31T01:04:00;96986.47;;;14.52;69.46
73024;BME280;61199;47.526;8.538;2022-10-31T01:06:27;96992.00;;;14.49;69.41
73024;BME280;61199;47.526;8.538;2022-10-31T01:08:53;96988.03;;;14.45;69.69
73024;BME280;61199;47.526;8.538;2022-10-31T01:11:21;96984.09;;;14.49;69.27
73024;BME280;61199;47.526;8.538;2022-10-31T01:13:50;96982.44;;;14.48;68.96
73024;BME280;61199;47.526;8.538;2022-10-31T01:16:18;96982.44;;;14.48;69.29
73024;BME280;61199;47.526;8.538;2022-10-31T01:18:46;96979.00;;;14.47;69.56
73024;BME280;61199;47.526;8.538;2022-10-31T01:21:16;96980.94;;;14.45;69.25
73024;BME280;61199;47.526;8.538;2022-10-31T01:23:43;96983.50;;;14.28;69.70
73024;BME280;61199;47.526;8.538;2022-10-31T01:26:12;96987.50;;;14.32;69.59
73024;BME280;61199;47.526;8.538;2022-10-31T01:28:46;96982.69;;;14.18;70.05
73024;BME280;61199;47.526;8.538;2022-10-31T01:31:13;96981.00;;;14.17;69.99
73024;BME280;61199;47.526;8.538;2022-10-31T01:33:40;96984.75;;;14.24;69.49
73024;BME280;61199;47.526;8.538;2022-10-31T01:38:46;96978.38;;;14.17;69.73
73024;BME280;61199;47.526;8.538;2022-10-31T01:41:16;96970.19;;;14.10;70.01
73024;BME280;61199;47.526;8.538;2022-10-31T01:43:47;96972.69;;;14.12;70.28
73024;BME280;61199;47.526;8.538;2022-10-31T01:46:17;96973.41;;;14.04;70.97
73024;BME280;61199;47.526;8.538;2022-10-31T01:48:44;96972.69;;;14.12;71.24
73024;BME280;61199;47.526;8.538;2022-10-31T01:51:12;96977.00;;;14.03;71.41
73024;BME280;61199;47.526;8.538;2022-10-31T01:53:42;96982.84;;;14.07;70.55
73024;BME280;61199;47.526;8.538;2022-10-31T01:56:10;96988.91;;;14.17;70.55
73024;BME280;61199;47.526;8.538;2022-10-31T01:58:36;96985.03;;;14.21;70.56
73024;BME280;61199;47.526;8.538;2022-10-31T02:01:03;96971.44;;;14.25;70.13
73024;BME280;61199;47.526;8.538;2022-10-31T02:03:33;96971.03;;;14.20;70.61
73024;BME280;61199;47.526;8.538;2022-10-31T02:06:00;96968.09;;;14.14;70.98
73024;BME280;61199;47.526;8.538;2022-10-31T02:08:28;96965.88;;;14.09;71.43
73024;BME280;61199;47.526;8.538;2022-10-31T02:11:00;96962.81;;;14.14;71.68
73024;BME280;61199;47.526;8.538;2022-10-31T02:13:28;96955.91;;;14.13;72.02
73024;BME280;61199;47.526;8.538;2022-10-31T02:15:57;96960.09;;;14.06;72.00
73024;BME280;61199;47.526;8.538;2022-10-31T02:18:25;96953.19;;;13.95;72.11
73024;BME280;61199;47.526;8.538;2022-10-31T02:31:45;96954.97;;;14.04;71.18
73024;BME280;61199;47.526;8.538;2022-10-31T02:34:25;96952.63;;;14.01;71.30
73024;BME280;61199;47.526;8.538;2022-10-31T02:36:58;96951.09;;;13.99;71.14
73024;BME280;61199;47.526;8.538;2022-10-31T02:39:39;96949.81;;;14.03;71.11
73024;BME280;61199;47.526;8.538;2022-10-31T02:42:16;96959.69;;;14.01;71.22
73024;BME280;61199;47.526;8.538;2022-10-31T02:44:51;96956.50;;;14.07;71.53
73024;BME280;61199;47.526;8.538;2022-10-31T02:47:30;96954.13;;;14.04;71.50
73024;BME280;61199;47.526;8.538;2022-10-31T02:50:01;96952.88;;;13.98;71.60
73024;BME280;61199;47.526;8.538;2022-10-31T02:52:31;96954.00;;;13.96;72.22
73024;BME280;61199;47.526;8.538;2022-10-31T02:54:58;96945.28;;;13.95;72.29
73024;BME280;61199;47.526;8.538;2022-10-31T02:57:27;96955.38;;;14.00;72.78
73024;BME280;61199;47.526;8.538;2022-10-31T02:59:59;96952.47;;;14.03;73.27
73024;BME280;61199;47.526;8.538;2022-10-31T03:05:23;96956.38;;;13.99;73.02
73024;BME280;61199;47.526;8.538;2022-10-31T03:08:01;96951.66;;;13.93;72.67
73024;BME280;61199;47.526;8.538;2022-10-31T03:10:52;96959.16;;;13.88;72.73
73024;BME280;61199;47.526;8.538;2022-10-31T03:13:32;96950.56;;;13.86;72.69
73024;BME280;61199;47.526;8.538;2022-10-31T03:19:13;96953.19;;;13.86;72.36
73024;BME280;61199;47.526;8.538;2022-10-31T03:21:44;96947.38;;;13.82;72.49
73024;BME280;61199;47.526;8.538;2022-10-31T03:24:13;96943.94;;;13.82;72.61
73024;BME280;61199;47.526;8.538;2022-10-31T03:26:44;96943.94;;;13.82;72.58
73024;BME280;61199;47.526;8.538;2022-10-31T03:29:15;96938.53;;;13.83;72.53
73024;BME280;61199;47.526;8.538;2022-10-31T03:31:50;96944.22;;;13.79;72.44
73024;BME280;61199;47.526;8.538;2022-10-31T03:34:19;96939.91;;;13.78;72.72
73024;BME280;61199;47.526;8.538;2022-10-31T03:36:50;96946.00;;;13.78;72.50
73024;BME280;61199;47.526;8.538;2022-10-31T03:39:19;96940.44;;;13.81;72.29
73024;BME280;61199;47.526;8.538;2022-10-31T03:41:53;96940.19;;;13.75;72.86
73024;BME280;61199;47.526;8.538;2022-10-31T03:44:21;96942.41;;;13.79;72.72
73024;BME280;61199;47.526;8.538;2022-10-31T03:46:55;96945.03;;;13.89;72.13
73024;BME280;61199;47.526;8.538;2022-10-31T03:49:22;96943.63;;;13.85;72.50
73024;BME280;61199;47.526;8.538;2022-10-31T03:51:56;96941.59;;;13.79;72.77
73024;BME280;61199;47.526;8.538;2022-10-31T03:54:44;96944.22;;;13.79;72.84
73024;BME280;61199;47.526;8.538;2022-10-31T03:57:27;96942.44;;;13.70;73.07
73024;BME280;61199;47.526;8.538;2022-10-31T04:00:13;96947.66;;;13.79;72.76
73024;BME280;61199;47.526;8.538;2022-10-31T04:02:48;96947.28;;;13.74;72.77
73024;BME280;61199;47.526;8.538;2022-10-31T04:05:16;96942.66;;;13.86;72.39
73024;BME280;61199;47.526;8.538;2022-10-31T04:07:46;96939.63;;;13.81;71.86
73024;BME280;61199;47.526;8.538;2022-10-31T04:10:15;96931.31;;;13.76;72.31
73024;BME280;61199;47.526;8.538;2022-10-31T04:12:48;96934.09;;;13.65;72.65
73024;BME280;61199;47.526;8.538;2022-10-31T04:15:17;96932.84;;;13.69;72.68
73024;BME280;61199;47.526;8.538;2022-10-31T04:17:47;96925.38;;;13.64;72.89
73024;BME280;61199;47.526;8.538;2022-10-31T04:20:18;96933.00;;;13.67;72.55
73024;BME280;61199;47.526;8.538;2022-10-31T04:22:44;96926.34;;;13.73;72.17
73024;BME280;61199;47.526;8.538;2022-10-31T04:25:11;96919.41;;;13.72;72.09
73024;BME280;61199;47.526;8.538;2022-10-31T04:27:37;96925.06;;;13.77;72.30
73024;BME280;61199;47.526;8.538;2022-10-31T04:30:04;96917.75;;;13.71;72.78
73024;BME280;61199;47.526;8.538;2022-10-31T04:32:30;96925.66;;;13.71;72.52
73024;BME280;61199;47.526;8.538;2022-10-31T04:34:57;96928.13;;;13.72;71.97
73024;BME280;61199;47.526;8.538;2022-10-31T04:37:23;96930.53;;;13.56;72.54
73024;BME280;61199;47.526;8.538;2022-10-31T04:39:49;96934.69;;;13.49;72.62
73024;BME280;61199;47.526;8.538;2022-10-31T04:42:16;96925.56;;;13.44;72.10
73024;BME280;61199;47.526;8.538;2022-10-31T04:44:42;96922.34;;;13.50;71.96
73024;BME280;61199;47.526;8.538;2022-10-31T04:47:08;96927.75;;;13.48;71.81
73024;BME280;61199;47.526;8.538;2022-10-31T04:49:35;96923.03;;;13.42;72.28
73024;BME280;61199;47.526;8.538;2022-10-31T04:52:01;96925.13;;;13.39;72.21
73024;BME280;61199;47.526;8.538;2022-10-31T04:54:27;96928.56;;;13.49;72.22
73024;BME280;61199;47.526;8.538;2022-10-31T04:56:54;96915.28;;;13.41;72.34
73024;BME280;61199;47.526;8.538;2022-10-31T04:59:20;96908.50;;;13.29;73.25
73024;BME280;61199;47.526;8.538;2022-10-31T05:01:46;96916.66;;;13.35;73.03
73024;BME280;61199;47.526;8.538;2022-10-31T05:04:13;96915.28;;;13.41;72.92
73024;BME280;61199;47.526;8.538;2022-10-31T05:06:39;96908.66;;;13.37;73.21
73024;BME280;61199;47.526;8.538;2022-10-31T05:09:06;96900.75;;;13.37;73.54
73024;BME280;61199;47.526;8.538;2022-10-31T05:11:32;96894.66;;;13.17;74.20
73024;BME280;61199;47.526;8.538;2022-10-31T05:13:59;96896.47;;;13.36;73.56
73024;BME280;61199;47.526;8.538;2022-10-31T05:16:25;96898.13;;;13.37;73.60
73024;BME280;61199;47.526;8.538;2022-10-31T05:18:51;96890.22;;;13.37;73.68
73024;BME280;61199;47.526;8.538;2022-10-31T05:21:18;96890.94;;;13.29;74.01
73024;BME280;61199;47.526;8.538;2022-10-31T05:23:44;96884.00;;;13.19;74.46
73024;BME280;61199;47.526;8.538;2022-10-31T05:26:14;96890.38;;;13.26;74.23
73024;BME280;61199;47.526;8.538;2022-10-31T05:28:40;96887.47;;;13.19;74.54
73024;BME280;61199;47.526;8.538;2022-10-31T05:31:06;96885.78;;;13.18;74.51
73024;BME280;61199;47.526;8.538;2022-10-31T05:33:33;96888.97;;;13.22;74.50
73024;BME280;61199;47.526;8.538;2022-10-31T05:35:59;96897.00;;;13.30;74.29
73024;BME280;61199;47.526;8.538;2022-10-31T05:38:25;96896.34;;;13.09;74.89
73024;BME280;61199;47.526;8.538;2022-10-31T05:40:55;96885.13;;;13.26;74.35
73024;BME280;61199;47.526;8.538;2022-10-31T05:43:28;96887.06;;;13.24;74.44
73024;BME280;61199;47.526;8.538;2022-10-31T05:45:55;96887.75;;;13.26;74.46
73024;BME280;61199;47.526;8.538;2022-10-31T05:48:22;96890.09;;;13.29;74.43
73024;BME280;61199;47.526;8.538;2022-10-31T05:50:49;96874.84;;;13.23;74.40
73024;BME280;61199;47.526;8.538;2022-10-31T05:53:16;96882.06;;;13.21;74.45
73024;BME280;61199;47.526;8.538;2022-10-31T05:55:43;96879.84;;;13.16;74.60
73024;BME280;61199;47.526;8.538;2022-10-31T05:58:10;96880.00;;;13.24;73.88
73024;BME280;61199;47.526;8.538;2022-10-31T06:00:37;96882.91;;;13.21;74.14
73024;BME280;61199;47.526;8.538;2022-10-31T06:03:08;96883.47;;;13.25;73.74
73024;BME280;61199;47.526;8.538;2022-10-31T06:05:39;96884.03;;;13.28;73.88
73024;BME280;61199;47.526;8.538;2022-10-31T06:08:06;96889.28;;;13.19;73.98
73024;BME280;61199;47.526;8.538;2022-10-31T06:10:32;96878.19;;;13.25;73.51
73024;BME280;61199;47.526;8.538;2022-10-31T06:12:59;96882.63;;;13.34;73.18
73024;BME280;61199;47.526;8.538;2022-10-31T06:15:25;96880.13;;;13.23;73.53
73024;BME280;61199;47.526;8.538;2022-10-31T06:18:04;96886.91;;;13.35;72.85
73024;BME280;61199;47.526;8.538;2022-10-31T06:20:31;96880.97;;;13.33;72.25
73024;BME280;61199;47.526;8.538;2022-10-31T06:22:58;96882.63;;;13.24;72.23
73024;BME280;61199;47.526;8.538;2022-10-31T06:25:25;96881.53;;;13.27;71.88
73024;BME280;61199;47.526;8.538;2022-10-31T06:27:52;96882.88;;;13.31;71.41
73024;BME280;61199;47.526;8.538;2022-10-31T06:30:19;96881.09;;;13.31;71.50
73024;BME280;61199;47.526;8.538;2022-10-31T06:32:45;96875.84;;;13.31;71.27
73024;BME280;61199;47.526;8.538;2022-10-31T06:35:12;96873.34;;;13.30;71.54
73024;BME280;61199;47.526;8.538;2022-10-31T06:37:38;96880.00;;;13.34;70.96
73024;BME280;61199;47.526;8.538;2022-10-31T06:40:05;96877.38;;;13.34;70.97
73024;BME280;61199;47.526;8.538;2022-10-31T06:42:31;96872.91;;;13.34;70.27
73024;BME280;61199;47.526;8.538;2022-10-31T06:44:58;96872.78;;;13.36;70.29
73024;BME280;61199;47.526;8.538;2022-10-31T06:47:24;96877.78;;;13.29;70.46
73024;BME280;61199;47.526;8.538;2022-10-31T06:49:50;96882.06;;;13.30;70.48
73024;BME280;61199;47.526;8.538;2022-10-31T06:52:17;96881.09;;;13.31;70.41
73024;BME280;61199;47.526;8.538;2022-10-31T06:54:43;96879.28;;;13.32;70.37
73024;BME280;61199;47.526;8.538;2022-10-31T06:57:09;96885.97;;;13.17;71.33
73024;BME280;61199;47.526;8.538;2022-10-31T06:59:36;96891.88;;;13.09;71.15
73024;BME280;61199;47.526;8.538;2022-10-31T07:02:02;96895.78;;;13.05;71.52
73024;BME280;61199;47.526;8.538;2022-10-31T07:04:29;96902.81;;;13.05;71.16
73024;BME280;61199;47.526;8.538;2022-10-31T07:06:55;96903.78;;;13.04;71.33
73024;BME280;61199;47.526;8.538;2022-10-31T07:09:21;96910.16;;;13.11;71.07
73024;BME280;61199;47.526;8.538;2022-10-31T07:11:48;96916.41;;;13.10;71.04
73024;BME280;61199;47.526;8.538;2022-10-31T07:14:14;96912.81;;;13.11;70.64
73024;BME280;61199;47.526;8.538;2022-10-31T07:16:40;96912.53;;;13.04;70.86
73024;BME280;61199;47.526;8.538;2022-10-31T07:19:07;96918.59;;;13.05;71.06
73024;BME280;61199;47.526;8.538;2022-10-31T07:21:33;96914.22;;;13.15;70.82
73024;BME280;61199;47.526;8.538;2022-10-31T07:24:00;96921.09;;;13.06;70.48
73024;BME280;61199;47.526;8.538;2022-10-31T07:26:26;96915.56;;;13.09;70.64
73024;BME280;61199;47.526;8.538;2022-10-31T07:28:54;96920.00;;;13.09;71.04
73024;BME280;61199;47.526;8.538;2022-10-31T07:31:20;96922.78;;;13.17;70.62
73024;BME280;61199;47.526;8.538;2022-10-31T07:33:47;96922.50;;;13.20;70.83
73024;BME280;61199;47.526;8.538;2022-10-31T07:36:13;96921.53;;;13.21;70.98
73024;BME280;61199;47.526;8.538;2022-10-31T07:38:39;96923.75;;;13.25;70.48
73024;BME280;61199;47.526;8.538;2022-10-31T07:41:06;96916.41;;;13.10;71.04
73024;BME280;61199;47.526;8.538;2022-10-31T07:43:32;96920.28;;;13.06;71.48
73024;BME280;61199;47.526;8.538;2022-10-31T07:45:59;96912.81;;;13.11;71.47
73024;BME280;61199;47.526;8.538;2022-10-31T07:48:25;96910.16;;;13.11;71.22
73024;BME280;61199;47.526;8.538;2022-10-31T07:50:52;96915.03;;;13.06;71.88
73024;BME280;61199;47.526;8.538;2022-10-31T07:53:18;96907.81;;;12.98;71.94
73024;BME280;61199;47.526;8.538;2022-10-31T07:55:44;96917.66;;;13.06;71.38
73024;BME280;61199;47.526;8.538;2022-10-31T07:58:13;96913.34;;;13.05;71.37
73024;BME280;61199;47.526;8.538;2022-10-31T08:00:42;96919.47;;;13.15;71.14
73024;BME280;61199;47.526;8.538;2022-10-31T08:03:11;96930.50;;;12.99;71.80
73024;BME280;61199;47.526;8.538;2022-10-31T08:05:38;96938.69;;;13.06;71.54
73024;BME280;61199;47.526;8.538;2022-10-31T08:08:07;96926.78;;;13.11;71.54
73024;BME280;61199;47.526;8.538;2022-10-31T08:10:34;96921.13;;;12.97;72.34
73024;BME280;61199;47.526;8.538;2022-10-31T08:13:04;96918.59;;;12.95;72.90
73024;BME280;61199;47.526;8.538;2022-10-31T08:15:30;96917.50;;;12.98;73.37
73024;BME280;61199;47.526;8.538;2022-10-31T08:17:57;96915.69;;;12.98;73.09
73024;BME280;61199;47.526;8.538;2022-10-31T08:20:24;96924.84;;;13.13;72.96
73024;BME280;61199;47.526;8.538;2022-10-31T08:22:59;96914.75;;;13.28;72.54
73024;BME280;61199;47.526;8.538;2022-10-31T08:25:27;96903.69;;;13.34;72.43
73024;BME280;61199;47.526;8.538;2022-10-31T08:27:59;96911.41;;;13.35;72.46
73024;BME280;61199;47.526;8.538;2022-10-31T08:30:29;96914.63;;;13.29;72.68
73024;BME280;61199;47.526;8.538;2022-10-31T08:33:09;96912.53;;;13.42;72.85
73024;BME280;61199;47.526;8.538;2022-10-31T08:35:36;96916.66;;;13.35;72.72
73024;BME280;61199;47.526;8.538;2022-10-31T08:38:03;96912.09;;;13.47;72.39
73024;BME280;61199;47.526;8.538;2022-10-31T08:40:31;96913.91;;;13.56;72.11
73024;BME280;61199;47.526;8.538;2022-10-31T08:43:12;96903.91;;;13.50;72.48
73024;BME280;61199;47.526;8.538;2022-10-31T08:45:39;96909.47;;;13.56;72.54
73024;BME280;61199;47.526;8.538;2022-10-31T08:48:12;96906.53;;;13.59;72.81
73024;BME280;61199;47.526;8.538;2022-10-31T08:50:39;96899.19;;;13.63;72.48
73024;BME280;61199;47.526;8.538;2022-10-31T08:53:11;96903.63;;;13.72;72.37
73024;BME280;61199;47.526;8.538;2022-10-31T08:55:39;96898.06;;;13.75;72.04
73024;BME280;61199;47.526;8.538;2022-10-31T08:58:09;96891.63;;;13.87;72.00
73024;BME280;61199;47.526;8.538;2022-10-31T09:00:36;96901.22;;;13.88;72.29
73024;BME280;61199;47.526;8.538;2022-10-31T09:03:09;96897.47;;;13.90;72.09
73024;BME280;61199;47.526;8.538;2022-10-31T09:05:37;96902.47;;;13.84;72.20
73024;BME280;61199;47.526;8.538;2022-10-31T09:08:04;96898.34;;;13.62;73.14
73024;BME280;61199;47.526;8.538;2022-10-31T09:10:40;96903.63;;;13.72;73.31
73024;BME280;61199;47.526;8.538;2022-10-31T09:13:14;96907.47;;;13.77;73.03
73024;BME280;61199;47.526;8.538;2022-10-31T09:15:43;96907.75;;;13.84;72.85
73024;BME280;61199;47.526;8.538;2022-10-31T09:18:10;96912.56;;;13.88;73.02
73024;BME280;61199;47.526;8.538;2022-10-31T09:20:38;96907.44;;;13.96;73.18
73024;BME280;61199;47.526;8.538;2022-10-31T09:23:17;96902.97;;;14.06;73.09
73024;BME280;61199;47.526;8.538;2022-10-31T09:25:45;96906.81;;;14.12;72.77
73024;BME280;61199;47.526;8.538;2022-10-31T09:28:18;96898.09;;;14.11;72.80
73024;BME280;61199;47.526;8.538;2022-10-31T09:30:46;96897.25;;;14.11;72.77
73024;BME280;61199;47.526;8.538;2022-10-31T09:33:14;96888.06;;;14.15;73.09
73024;BME280;61199;47.526;8.538;2022-10-31T09:35:41;96875.63;;;14.17;73.11
73024;BME280;61199;47.526;8.538;2022-10-31T09:38:16;96875.44;;;14.28;72.98
73024;BME280;61199;47.526;8.538;2022-10-31T09:40:45;96875.25;;;14.39;72.43
73024;BME280;61199;47.526;8.538;2022-10-31T09:46:08;96865.47;;;14.22;72.26
73024;BME280;61199;47.526;8.538;2022-10-31T09:51:29;96863.53;;;14.51;71.59
73024;BME280;61199;47.526;8.538;2022-10-31T09:54:05;96862.06;;;14.39;72.08
73024;BME280;61199;47.526;8.538;2022-10-31T09:56:35;96869.97;;;14.39;72.11
73024;BME280;61199;47.526;8.538;2022-10-31T09:59:05;96863.47;;;14.43;72.08
73024;BME280;61199;47.526;8.538;2022-10-31T10:01:42;96859.66;;;14.45;71.97
73024;BME280;61199;47.526;8.538;2022-10-31T10:04:19;96873.94;;;14.52;72.11
73024;BME280;61199;47.526;8.538;2022-10-31T10:06:50;96862.16;;;14.47;72.09
73024;BME280;61199;47.526;8.538;2022-10-31T10:09:24;96854.13;;;14.48;72.54
73024;BME280;61199;47.526;8.538;2022-10-31T10:12:03;96851.13;;;14.61;72.06
73024;BME280;61199;47.526;8.538;2022-10-31T10:14:40;96856.91;;;14.64;71.88
73024;BME280;61199;47.526;8.538;2022-10-31T10:17:21;96857.19;;;14.71;72.34
73024;BME280;61199;47.526;8.538;2022-10-31T10:19:59;96850.19;;;14.52;72.13
73024;BME280;61199;47.526;8.538;2022-10-31T10:25:22;96861.00;;;13.40;77.73
73024;BME280;61199;47.526;8.538;2022-10-31T10:28:02;96858.78;;;13.45;78.03
73024;BME280;61199;47.526;8.538;2022-10-31T10:30:38;96852.91;;;13.70;77.07
73024;BME280;61199;47.526;8.538;2022-10-31T10:33:12;96850.09;;;13.81;77.01
73024;BME280;61199;47.526;8.538;2022-10-31T10:35:53;96840.97;;;13.75;76.93
73024;BME280;61199;47.526;8.538;2022-10-31T10:40:54;96846.38;;;14.20;75.68
73024;BME280;61199;47.526;8.538;2022-10-31T10:43:44;96836.81;;;14.09;75.78
73024;BME280;61199;47.526;8.538;2022-10-31T10:46:40;96839.97;;;14.22;75.48
73024;BME280;61199;47.526;8.538;2022-10-31T10:49:37;96835.94;;;14.28;75.15
73024;BME280;61199;47.526;8.538;2022-10-31T10:52:18;96833.34;;;14.09;75.41
73024;BME280;61199;47.526;8.538;2022-10-31T10:55:16;96835.97;;;13.72;77.81
73024;BME280;61199;47.526;8.538;2022-10-31T10:58:00;96837.00;;;13.62;77.85
73024;BME280;61199;47.526;8.538;2022-10-31T11:00:36;96836.34;;;13.87;77.66
73024;BME280;61199;47.526;8.538;2022-10-31T11:03:04;96834.31;;;13.81;77.23
73024;BME280;61199;47.526;8.538;2022-10-31T11:05:42;96843.56;;;13.85;77.42
73024;BME280;61199;47.526;8.538;2022-10-31T11:08:11;96836.34;;;13.87;77.03
73024;BME280;61199;47.526;8.538;2022-10-31T11:10:38;96832.56;;;13.62;78.42
73024;BME280;61199;47.526;8.538;2022-10-31T11:13:19;96830.47;;;13.66;78.87
73024;BME280;61199;47.526;8.538;2022-10-31T11:18:35;96833.22;;;13.74;78.79
73024;BME280;61199;47.526;8.538;2022-10-31T11:21:03;96829.97;;;13.89;78.19
73024;BME280;61199;47.526;8.538;2022-10-31T11:23:32;96827.56;;;13.96;78.02
73024;BME280;61199;47.526;8.538;2022-10-31T11:25:59;96809.25;;;14.04;77.40
73024;BME280;61199;47.526;8.538;2022-10-31T11:28:28;96805.56;;;14.24;76.97
73024;BME280;61199;47.526;8.538;2022-10-31T11:31:00;96793.63;;;14.47;76.50
73024;BME280;61199;47.526;8.538;2022-10-31T11:36:29;96804.66;;;14.77;75.22
73024;BME280;61199;47.526;8.538;2022-10-31T11:38:58;96804.34;;;14.80;75.11
73024;BME280;61199;47.526;8.538;2022-10-31T11:41:34;96810.44;;;14.19;77.10
73024;BME280;61199;47.526;8.538;2022-10-31T11:44:04;96811.69;;;13.88;79.49
73024;BME280;61199;47.526;8.538;2022-10-31T11:46:38;96807.88;;;14.00;79.49
73024;BME280;61199;47.526;8.538;2022-10-31T11:49:15;96788.94;;;14.23;78.81
73024;BME280;61199;47.526;8.538;2022-10-31T11:51:47;96785.81;;;14.55;77.20
73024;BME280;61199;47.526;8.538;2022-10-31T11:54:28;96782.44;;;14.79;76.14
73024;BME280;61199;47.526;8.538;2022-10-31T11:56:55;96783.19;;;14.89;75.76
73024;BME280;61199;47.526;8.538;2022-10-31T11:59:28;96778.31;;;15.02;75.42
73024;BME280;61199;47.526;8.538;2022-10-31T12:01:57;96766.97;;;15.27;74.48
73024;BME280;61199;47.526;8.538;2022-10-31T12:05:02;96758.22;;;15.44;73.97
73024;BME280;61199;47.526;8.538;2022-10-31T12:07:30;96744.53;;;15.49;73.70
73024;BME280;61199;47.526;8.538;2022-10-31T12:09:57;96749.78;;;15.74;73.46
73024;BME280;61199;47.526;8.538;2022-10-31T12:21:34;96749.41;;;16.44;69.89
73024;BME280;61199;47.526;8.538;2022-10-31T12:24:05;96749.19;;;16.30;70.81
73024;BME280;61199;47.526;8.538;2022-10-31T12:26:45;96745.00;;;16.85;70.19
73024;BME280;61199;47.526;8.538;2022-10-31T12:32:38;96725.22;;;17.51;67.50
73024;BME280;61199;47.526;8.538;2022-10-31T12:46:16;96683.78;;;19.54;61.81
73024;BME280;61199;47.526;8.538;2022-10-31T12:48:59;96671.75;;;19.72;61.01
73024;BME280;61199;47.526;8.538;2022-10-31T12:57:04;96656.97;;;20.13;59.69
73024;BME280;61199;47.526;8.538;2022-10-31T12:59:39;96648.84;;;20.36;58.50
73024;BME280;61199;47.526;8.538;2022-10-31T13:02:41;96636.28;;;20.51;58.29
73024;BME280;61199;47.526;8.538;2022-10-31T13:05:30;96630.69;;;20.67;57.93
73024;BME280;61199;47.526;8.538;2022-10-31T13:08:28;96634.13;;;20.82;57.33
73024;BME280;61199;47.526;8.538;2022-10-31T13:13:56;96633.22;;;20.33;58.19
73024;BME280;61199;47.526;8.538;2022-10-31T13:16:29;96621.06;;;19.74;60.63
73024;BME280;61199;47.526;8.538;2022-10-31T13:19:06;96613.13;;;20.09;59.43
73024;BME280;61199;47.526;8.538;2022-10-31T13:21:39;96614.88;;;20.38;58.92
73024;BME280;61199;47.526;8.538;2022-10-31T13:24:13;96608.06;;;20.56;58.89
73024;BME280;61199;47.526;8.538;2022-10-31T13:26:47;96611.31;;;21.00;57.69
73024;BME280;61199;47.526;8.538;2022-10-31T13:29:29;96604.41;;;21.39;57.03
73024;BME280;61199;47.526;8.538;2022-10-31T13:32:00;96597.16;;;21.61;56.29
73024;BME280;61199;47.526;8.538;2022-10-31T13:34:34;96607.53;;;21.83;55.17
73024;BME280;61199;47.526;8.538;2022-10-31T13:37:09;96591.25;;;21.65;55.46
73024;BME280;61199;47.526;8.538;2022-10-31T13:44:46;96580.25;;;21.88;54.54
73024;BME280;61199;47.526;8.538;2022-10-31T13:47:22;96578.03;;;21.98;54.35
73024;BME280;61199;47.526;8.538;2022-10-31T13:49:49;96574.19;;;22.26;53.55
73024;BME280;61199;47.526;8.538;2022-10-31T13:52:23;96576.69;;;22.41;52.98
73024;BME280;61199;47.526;8.538;2022-10-31T13:54:52;96580.00;;;22.62;52.73
73024;BME280;61199;47.526;8.538;2022-10-31T13:57:28;96577.78;;;22.79;52.10
73024;BME280;61199;47.526;8.538;2022-10-31T14:02:49;96574.19;;;22.20;52.99
73024;BME280;61199;47.526;8.538;2022-10-31T14:07:56;96567.47;;;22.69;52.97
73024;BME280;61199;47.526;8.538;2022-10-31T14:10:38;96553.50;;;22.74;52.70
73024;BME280;61199;47.526;8.538;2022-10-31T14:13:21;96564.63;;;22.64;52.82
73024;BME280;61199;47.526;8.538;2022-10-31T14:15:55;96556.38;;;22.59;52.36
73024;BME280;61199;47.526;8.538;2022-10-31T14:18:25;96554.13;;;22.43;53.17
73024;BME280;61199;47.526;8.538;2022-10-31T14:20:54;96544.44;;;22.36;53.53
73024;BME280;61199;47.526;8.538;2022-10-31T14:28:46;96521.16;;;21.97;55.63
73024;BME280;61199;47.526;8.538;2022-10-31T14:31:38;96520.38;;;22.10;55.71
73024;BME280;61199;47.526;8.538;2022-10-31T14:34:19;96516.66;;;22.04;55.79
73024;BME280;61199;47.526;8.538;2022-10-31T14:42:52;96520.31;;;21.77;55.92
73024;BME280;61199;47.526;8.538;2022-10-31T14:50:58;96526.72;;;21.96;55.69
73024;BME280;61199;47.526;8.538;2022-10-31T14:53:32;96520.78;;;22.00;56.02